createdAt,value
2023-03-12T00:03:09.529Z,100987.03
2023-03-12T00:08:31.226Z,100984.19
2023-03-12T00:13:55.074Z,100973.84
2023-03-12T00:19:16.743Z,100979.03
2023-03-12T00:24:38.544Z,100960.13
2023-03-12T00:30:00.283Z,100956.16
2023-03-12T00:35:22.324Z,100944.75
2023-03-12T00:40:44.343Z,100948.84
2023-03-12T00:46:06.103Z,100951.25
2023-03-12T00:51:27.830Z,100949.81
2023-03-12T00:56:50.056Z,100947.31
2023-03-12T01:02:12.167Z,100936.94
2023-03-12T01:07:34.082Z,100921.66
2023-03-12T01:12:55.752Z,100928.28
2023-03-12T01:18:17.639Z,100931.53
2023-03-12T01:23:39.430Z,100930.38
2023-03-12T01:29:01.134Z,100914.84
2023-03-12T01:34:22.930Z,100909.78
2023-03-12T01:39:44.623Z,100900.03
2023-03-12T01:45:07.017Z,100898.84
2023-03-12T01:50:29.570Z,100889.94
2023-03-12T01:55:51.708Z,100884.66
2023-03-12T02:01:15.966Z,100878.75
2023-03-12T02:06:43.999Z,100874.31
2023-03-12T02:12:06.414Z,100859.84
2023-03-12T02:17:28.473Z,100867.56
2023-03-12T02:22:59.601Z,100860.59
2023-03-12T02:28:23.830Z,100858.31
2023-03-12T02:33:45.732Z,100851.09
2023-03-12T02:39:07.565Z,100846.91
2023-03-12T02:44:38.043Z,100836.91
2023-03-12T02:49:59.742Z,100827.16
2023-03-12T02:55:21.464Z,100824.88
2023-03-12T03:00:43.177Z,100821.53
2023-03-12T03:06:05.170Z,100821.78
2023-03-12T03:11:26.914Z,100826.72
2023-03-12T03:16:48.608Z,100834.44
2023-03-12T03:22:10.274Z,100828.28
2023-03-12T03:27:32.127Z,100810.00
2023-03-12T03:32:53.878Z,100776.19
2023-03-12T03:38:16.184Z,100784.72
2023-03-12T03:43:37.948Z,100778.59
2023-03-12T03:48:59.663Z,100775.00
2023-03-12T03:54:21.412Z,100759.69
2023-03-12T03:59:43.062Z,100769.31
2023-03-12T04:05:05.334Z,100775.94
2023-03-12T04:10:27.038Z,100768.16
2023-03-12T04:15:53.685Z,100766.19
2023-03-12T04:21:15.843Z,100764.78
2023-03-12T04:26:37.540Z,100766.94
2023-03-12T04:31:59.224Z,100756.97
2023-03-12T04:37:21.028Z,100751.91
2023-03-12T04:42:42.772Z,100750.22
2023-03-12T04:48:04.529Z,100734.69
2023-03-12T04:53:26.810Z,100713.66
2023-03-12T04:58:48.537Z,100700.91
2023-03-12T05:04:10.327Z,100704.75
2023-03-12T05:09:32.050Z,100688.63
2023-03-12T05:14:53.802Z,100696.13
2023-03-12T05:20:15.886Z,100695.53
2023-03-12T05:25:41.339Z,100701.88
2023-03-12T05:31:10.982Z,100690.22
2023-03-12T05:36:32.792Z,100692.38
2023-03-12T05:41:57.156Z,100689.06
2023-03-12T05:47:19.173Z,100697.34
2023-03-12T05:52:40.896Z,100700.34
2023-03-12T05:58:03.556Z,100699.75
2023-03-12T06:03:25.474Z,100693.41
2023-03-12T06:08:47.145Z,100696.44
2023-03-12T06:14:08.835Z,100698.34
2023-03-12T06:19:30.492Z,100698.59
2023-03-12T06:24:52.471Z,100692.19
2023-03-12T06:30:14.949Z,100685.84
2023-03-12T06:35:36.736Z,100686.91
2023-03-12T06:41:10.275Z,100673.19
2023-03-12T06:46:32.211Z,100663.75
2023-03-12T06:51:54.723Z,100666.69
2023-03-12T06:57:16.837Z,100678.09
2023-03-12T07:02:38.592Z,100673.13
2023-03-12T07:08:00.340Z,100680.34
2023-03-12T07:13:22.019Z,100677.91
2023-03-12T07:18:43.916Z,100671.78
2023-03-12T07:24:09.535Z,100687.28
2023-03-12T07:29:31.225Z,100684.34
2023-03-12T07:34:52.942Z,100689.50
2023-03-12T07:40:14.661Z,100690.16
2023-03-12T07:45:36.401Z,100691.66
2023-03-12T07:50:58.125Z,100696.75
2023-03-12T07:56:19.950Z,100707.13
2023-03-12T08:01:43.982Z,100690.63
2023-03-12T08:07:09.167Z,100694.94
2023-03-12T08:12:31.173Z,100705.88
2023-03-12T08:17:52.906Z,100711.34
2023-03-12T08:23:14.601Z,100728.47
2023-03-12T08:28:36.348Z,100735.59
2023-03-12T08:33:58.093Z,100746.44
2023-03-12T08:39:19.838Z,100743.44
2023-03-12T08:44:41.504Z,100751.94
2023-03-12T08:50:03.387Z,100749.75
2023-03-12T08:55:28.214Z,100760.25
2023-03-12T09:00:49.906Z,100769.03
2023-03-12T09:06:16.812Z,100773.13
2023-03-12T09:11:42.663Z,100775.56
2023-03-12T09:17:07.661Z,100770.41
2023-03-12T09:22:30.774Z,100765.56
2023-03-12T09:27:52.481Z,100772.66
2023-03-12T09:33:15.540Z,100777.81
2023-03-12T09:38:38.135Z,100776.06
2023-03-12T09:44:05.065Z,100782.66
2023-03-12T09:49:26.672Z,100791.44
2023-03-12T09:54:59.301Z,100803.56
2023-03-12T10:00:29.668Z,100792.91
2023-03-12T10:06:15.605Z,100790.38
2023-03-12T10:11:40.063Z,100807.44
2023-03-12T10:17:23.272Z,100808.75
2023-03-12T10:23:07.764Z,100796.44
2023-03-12T10:28:35.967Z,100789.66
2023-03-12T10:34:02.161Z,100780.88
2023-03-12T10:39:23.849Z,100790.28
2023-03-12T10:44:53.859Z,100787.78
2023-03-12T10:50:21.348Z,100799.91
2023-03-12T10:55:43.168Z,100802.88
2023-03-12T11:01:15.911Z,100796.66
2023-03-12T11:06:37.648Z,100797.13
2023-03-12T11:11:59.383Z,100797.81
2023-03-12T11:17:25.385Z,100797.78
2023-03-12T11:22:47.145Z,100797.09
2023-03-12T11:28:17.741Z,100800.38
2023-03-12T11:33:39.503Z,100799.22
2023-03-12T11:39:16.389Z,100798.63
2023-03-12T11:44:59.881Z,100792.81
2023-03-12T11:50:21.596Z,100795.19
2023-03-12T11:55:44.005Z,100808.22
2023-03-12T12:01:18.735Z,100788.06
2023-03-12T12:07:04.643Z,100791.38
2023-03-12T12:12:40.331Z,100777.97
2023-03-12T12:18:26.828Z,100772.03
2023-03-12T12:24:02.344Z,100767.41
2023-03-12T12:29:50.179Z,100767.69
2023-03-12T12:35:35.386Z,100757.59
2023-03-12T12:41:08.377Z,100754.13
2023-03-12T12:46:37.039Z,100741.25
2023-03-12T12:52:02.763Z,100750.59
2023-03-12T12:57:42.295Z,100733.81
2023-03-12T13:03:04.995Z,100718.66
2023-03-12T13:08:34.645Z,100721.34
2023-03-12T13:14:05.351Z,100726.25
2023-03-12T13:19:27.921Z,100706.66
2023-03-12T13:25:05.263Z,100718.56
2023-03-12T13:30:32.854Z,100722.69
2023-03-12T13:36:23.805Z,100711.66
2023-03-12T13:41:45.777Z,100697.31
2023-03-12T13:47:23.591Z,100708.88
2023-03-12T13:52:54.587Z,100703.41
2023-03-12T13:58:21.738Z,100717.09
2023-03-12T14:03:49.855Z,100729.94
2023-03-12T14:09:32.602Z,100739.69
2023-03-12T14:15:26.262Z,100753.00
2023-03-12T14:20:56.113Z,100756.56
2023-03-12T14:26:24.898Z,100761.50
2023-03-12T14:31:48.939Z,100751.97
2023-03-12T14:37:19.245Z,100763.22
2023-03-12T14:42:40.937Z,100759.81
2023-03-12T14:48:02.967Z,100747.78
2023-03-12T14:53:38.383Z,100747.22
2023-03-12T14:59:04.910Z,100762.41
2023-03-12T15:04:27.184Z,100763.69
2023-03-12T15:09:51.907Z,100760.84
2023-03-12T15:15:39.639Z,100762.19
2023-03-12T15:21:02.900Z,100749.09
2023-03-12T15:26:24.943Z,100763.53
2023-03-12T15:31:48.736Z,100748.91
2023-03-12T15:37:35.375Z,100752.59
2023-03-12T15:43:02.079Z,100746.50
2023-03-12T15:48:48.877Z,100746.00
2023-03-12T15:54:31.479Z,100740.44
2023-03-12T16:00:14.072Z,100747.09
2023-03-12T16:05:39.453Z,100740.41
2023-03-12T16:11:01.405Z,100754.81
2023-03-12T16:16:23.338Z,100746.00
2023-03-12T16:21:46.002Z,100734.38
2023-03-12T16:27:18.082Z,100733.00
2023-03-12T16:32:42.626Z,100731.72
2023-03-12T16:38:04.817Z,100737.53
2023-03-12T16:43:30.003Z,100743.03
2023-03-12T16:48:55.306Z,100743.25
2023-03-12T16:54:17.051Z,100745.94
2023-03-12T16:59:38.763Z,100740.53
2023-03-12T17:05:00.830Z,100739.50
2023-03-12T17:10:23.957Z,100750.13
2023-03-12T17:15:46.300Z,100738.13
2023-03-12T17:21:12.357Z,100739.13
2023-03-12T17:26:34.433Z,100743.25
2023-03-12T17:31:56.181Z,100740.09
2023-03-12T17:37:17.970Z,100745.28
2023-03-12T17:42:39.811Z,100742.41
2023-03-12T17:48:01.513Z,100749.81
2023-03-12T17:53:23.214Z,100755.00
2023-03-12T17:58:45.693Z,100748.78
2023-03-12T18:04:07.434Z,100747.53
2023-03-12T18:09:29.245Z,100752.72
2023-03-12T18:14:51.024Z,100750.13
2023-03-12T18:20:21.268Z,100744.69
2023-03-12T18:25:47.663Z,100739.66
2023-03-12T18:31:10.129Z,100744.69
2023-03-12T18:36:31.874Z,100735.66
2023-03-12T18:41:55.916Z,100729.75
2023-03-12T18:47:18.960Z,100726.22
2023-03-12T18:52:40.709Z,100720.34
2023-03-12T18:58:02.555Z,100705.13
2023-03-12T19:03:25.801Z,100700.97
2023-03-12T19:08:47.586Z,100691.22
2023-03-12T19:14:09.338Z,100682.28
2023-03-12T19:19:31.169Z,100679.16
2023-03-12T19:24:54.253Z,100684.94
2023-03-12T19:30:16.250Z,100669.00
2023-03-12T19:35:39.739Z,100657.50
2023-03-12T19:41:01.548Z,100644.16
2023-03-12T19:46:23.241Z,100634.41
2023-03-12T19:51:45.333Z,100622.41
2023-03-12T19:57:07.145Z,100611.28
2023-03-12T20:02:29.117Z,100599.00
2023-03-12T20:07:52.468Z,100591.25
2023-03-12T20:13:17.851Z,100578.66
2023-03-12T20:18:39.604Z,100582.19
2023-03-12T20:24:02.435Z,100574.00
2023-03-12T20:29:24.364Z,100581.25
2023-03-12T20:34:46.139Z,100578.47
2023-03-12T20:40:08.924Z,100572.38
2023-03-12T20:45:34.268Z,100566.53
2023-03-12T20:50:55.941Z,100560.66
2023-03-12T20:56:17.679Z,100552.28
2023-03-12T21:01:39.482Z,100536.16
2023-03-12T21:07:01.652Z,100534.50
2023-03-12T21:12:23.426Z,100527.78
2023-03-12T21:17:45.084Z,100517.50
2023-03-12T21:23:08.968Z,100509.69
2023-03-12T21:28:31.204Z,100503.28
2023-03-12T21:33:59.166Z,100493.56
2023-03-12T21:39:23.294Z,100472.38
2023-03-12T21:44:44.968Z,100472.66
2023-03-12T21:50:07.444Z,100469.28
2023-03-12T21:55:29.187Z,100447.56
2023-03-12T22:00:51.006Z,100445.31
2023-03-12T22:06:14.346Z,100428.59
2023-03-12T22:11:36.109Z,100414.13
2023-03-12T22:16:58.190Z,100399.94
2023-03-12T22:22:19.833Z,100386.00
2023-03-12T22:27:41.487Z,100375.38
2023-03-12T22:33:03.636Z,100368.41
2023-03-12T22:38:25.760Z,100360.63
2023-03-12T22:43:49.535Z,100353.34
2023-03-12T22:49:11.224Z,100350.81
2023-03-12T22:54:33.939Z,100336.09
2023-03-12T22:59:55.628Z,100329.69
2023-03-12T23:05:17.736Z,100316.03
2023-03-12T23:10:39.521Z,100302.97
2023-03-12T23:16:06.415Z,100289.91
2023-03-12T23:21:28.311Z,100266.84
2023-03-12T23:26:50.015Z,100262.09
2023-03-12T23:32:11.687Z,100246.25
2023-03-12T23:37:33.429Z,100235.94
2023-03-12T23:42:55.138Z,100222.59
2023-03-12T23:48:16.859Z,100214.81
2023-03-12T23:53:40.195Z,100215.34
2023-03-12T23:59:02.121Z,100198.41
